sensor_id;sensor_type;location;lat;lon;timestamp;temperature;humidity
6357;DHT22;3211;53.452;-2.264;2023-07-13T00:00:03;15.50;99.90
6357;DHT22;3211;53.452;-2.264;2023-07-13T00:02:50;15.40;99.90
6357;DHT22;3211;53.452;-2.264;2023-07-13T00:05:34;15.30;1.00
6357;DHT22;3211;53.452;-2.264;2023-07-13T00:08:16;15.40;1.00
6357;DHT22;3211;53.452;-2.264;2023-07-13T00:10:57;15.40;1.00
6357;DHT22;3211;53.452;-2.264;2023-07-13T00:13:40;15.30;99.90
6357;DHT22;3211;53.452;-2.264;2023-07-13T00:16:22;15.20;99.90
6357;DHT22;3211;53.452;-2.264;2023-07-13T00:19:06;15.20;99.90
6357;DHT22;3211;53.452;-2.264;2023-07-13T00:21:48;15.30;62.80
6357;DHT22;3211;53.452;-2.264;2023-07-13T00:24:30;15.30;99.90
6357;DHT22;3211;53.452;-2.264;2023-07-13T00:27:12;15.40;94.30
6357;DHT22;3211;53.452;-2.264;2023-07-13T00:29:54;15.20;1.00
6357;DHT22;3211;53.452;-2.264;2023-07-13T00:32:37;15.10;1.00
6357;DHT22;3211;53.452;-2.264;2023-07-13T00:35:20;15.00;99.90
6357;DHT22;3211;53.452;-2.264;2023-07-13T00:38:02;15.00;99.90
6357;DHT22;3211;53.452;-2.264;2023-07-13T00:40:45;15.10;99.90
6357;DHT22;3211;53.452;-2.264;2023-07-13T00:43:28;15.10;99.90
6357;DHT22;3211;53.452;-2.264;2023-07-13T00:46:23;15.10;99.90
6357;DHT22;3211;53.452;-2.264;2023-07-13T00:49:07;15.10;1.00
6357;DHT22;3211;53.452;-2.264;2023-07-13T00:51:53;15.00;1.00
6357;DHT22;3211;53.452;-2.264;2023-07-13T00:54:38;15.00;1.00
6357;DHT22;3211;53.452;-2.264;2023-07-13T00:57:21;15.00;1.00
6357;DHT22;3211;53.452;-2.264;2023-07-13T01:00:06;15.10;1.00
6357;DHT22;3211;53.452;-2.264;2023-07-13T01:02:50;15.10;1.00
6357;DHT22;3211;53.452;-2.264;2023-07-13T01:05:33;15.10;1.00
6357;DHT22;3211;53.452;-2.264;2023-07-13T01:08:17;15.10;99.90
6357;DHT22;3211;53.452;-2.264;2023-07-13T01:10:59;15.10;12.40
6357;DHT22;3211;53.452;-2.264;2023-07-13T01:13:41;15.10;94.70
6357;DHT22;3211;53.452;-2.264;2023-07-13T01:16:26;15.20;99.90
6357;DHT22;3211;53.452;-2.264;2023-07-13T01:19:15;15.10;99.90
6357;DHT22;3211;53.452;-2.264;2023-07-13T01:21:59;14.90;99.90
6357;DHT22;3211;53.452;-2.264;2023-07-13T01:24:43;14.80;1.00
6357;DHT22;3211;53.452;-2.264;2023-07-13T01:27:26;15.00;92.60
6357;DHT22;3211;53.452;-2.264;2023-07-13T01:30:09;15.10;7.90
6357;DHT22;3211;53.452;-2.264;2023-07-13T01:32:51;15.00;1.00
6357;DHT22;3211;53.452;-2.264;2023-07-13T01:35:33;15.10;1.00
6357;DHT22;3211;53.452;-2.264;2023-07-13T01:38:18;15.10;99.90
6357;DHT22;3211;53.452;-2.264;2023-07-13T01:41:00;15.00;86.40
6357;DHT22;3211;53.452;-2.264;2023-07-13T01:43:42;15.00;99.90
6357;DHT22;3211;53.452;-2.264;2023-07-13T01:46:24;15.00;99.90
6357;DHT22;3211;53.452;-2.264;2023-07-13T01:49:06;15.00;99.90
6357;DHT22;3211;53.452;-2.264;2023-07-13T01:51:48;15.00;99.90
6357;DHT22;3211;53.452;-2.264;2023-07-13T01:54:31;14.80;99.90
6357;DHT22;3211;53.452;-2.264;2023-07-13T01:57:14;14.90;1.00
6357;DHT22;3211;53.452;-2.264;2023-07-13T01:59:56;15.00;1.00
6357;DHT22;3211;53.452;-2.264;2023-07-13T02:02:38;15.10;99.90
6357;DHT22;3211;53.452;-2.264;2023-07-13T02:05:20;15.10;99.90
6357;DHT22;3211;53.452;-2.264;2023-07-13T02:08:02;15.10;99.90
6357;DHT22;3211;53.452;-2.264;2023-07-13T02:10:45;14.90;99.90
6357;DHT22;3211;53.452;-2.264;2023-07-13T02:13:27;15.00;99.90
6357;DHT22;3211;53.452;-2.264;2023-07-13T02:16:09;15.00;99.90
6357;DHT22;3211;53.452;-2.264;2023-07-13T02:18:51;15.00;99.90
6357;DHT22;3211;53.452;-2.264;2023-07-13T02:21:33;15.10;1.00
6357;DHT22;3211;53.452;-2.264;2023-07-13T02:24:15;15.10;1.00
6357;DHT22;3211;53.452;-2.264;2023-07-13T02:26:59;15.10;26.00
6357;DHT22;3211;53.452;-2.264;2023-07-13T02:29:41;14.90;1.00
6357;DHT22;3211;53.452;-2.264;2023-07-13T02:32:23;15.00;99.90
6357;DHT22;3211;53.452;-2.264;2023-07-13T02:35:06;15.00;99.90
6357;DHT22;3211;53.452;-2.264;2023-07-13T02:37:48;14.90;99.90
6357;DHT22;3211;53.452;-2.264;2023-07-13T02:40:31;14.70;99.90
6357;DHT22;3211;53.452;-2.264;2023-07-13T02:43:15;14.60;93.60
6357;DHT22;3211;53.452;-2.264;2023-07-13T02:45:58;14.60;99.90
6357;DHT22;3211;53.452;-2.264;2023-07-13T02:48:44;14.60;99.90
6357;DHT22;3211;53.452;-2.264;2023-07-13T02:51:27;14.60;99.90
6357;DHT22;3211;53.452;-2.264;2023-07-13T02:54:09;14.70;99.90
6357;DHT22;3211;53.452;-2.264;2023-07-13T02:56:52;14.70;99.90
6357;DHT22;3211;53.452;-2.264;2023-07-13T02:59:35;14.60;99.90
6357;DHT22;3211;53.452;-2.264;2023-07-13T03:02:17;14.60;99.90
6357;DHT22;3211;53.452;-2.264;2023-07-13T03:05:00;14.50;99.90
6357;DHT22;3211;53.452;-2.264;2023-07-13T03:07:42;14.60;99.90
6357;DHT22;3211;53.452;-2.264;2023-07-13T03:10:24;14.60;99.90
6357;DHT22;3211;53.452;-2.264;2023-07-13T03:13:06;14.60;99.90
6357;DHT22;3211;53.452;-2.264;2023-07-13T03:15:50;14.70;99.90
6357;DHT22;3211;53.452;-2.264;2023-07-13T03:18:32;14.60;50.10
6357;DHT22;3211;53.452;-2.264;2023-07-13T03:21:14;14.60;84.50
6357;DHT22;3211;53.452;-2.264;2023-07-13T03:23:56;14.50;24.80
6357;DHT22;3211;53.452;-2.264;2023-07-13T03:26:38;14.50;99.90
6357;DHT22;3211;53.452;-2.264;2023-07-13T03:29:20;14.50;99.90
6357;DHT22;3211;53.452;-2.264;2023-07-13T03:32:04;14.50;71.50
6357;DHT22;3211;53.452;-2.264;2023-07-13T03:34:46;14.50;99.90
6357;DHT22;3211;53.452;-2.264;2023-07-13T03:37:28;14.50;99.90
6357;DHT22;3211;53.452;-2.264;2023-07-13T03:40:11;14.30;16.80
6357;DHT22;3211;53.452;-2.264;2023-07-13T03:42:53;14.40;99.90
6357;DHT22;3211;53.452;-2.264;2023-07-13T03:45:37;14.30;99.90
6357;DHT22;3211;53.452;-2.264;2023-07-13T03:48:20;14.40;99.90
6357;DHT22;3211;53.452;-2.264;2023-07-13T03:51:02;14.40;99.90
6357;DHT22;3211;53.452;-2.264;2023-07-13T03:53:46;14.20;9.00
6357;DHT22;3211;53.452;-2.264;2023-07-13T03:56:28;14.20;99.90
6357;DHT22;3211;53.452;-2.264;2023-07-13T03:59:10;14.20;99.90
6357;DHT22;3211;53.452;-2.264;2023-07-13T04:01:52;14.20;99.90
6357;DHT22;3211;53.452;-2.264;2023-07-13T04:04:37;14.10;73.60
6357;DHT22;3211;53.452;-2.264;2023-07-13T04:07:20;14.20;99.90
6357;DHT22;3211;53.452;-2.264;2023-07-13T04:10:02;14.10;99.90
6357;DHT22;3211;53.452;-2.264;2023-07-13T04:12:44;14.10;99.90
6357;DHT22;3211;53.452;-2.264;2023-07-13T04:15:29;14.00;84.60
6357;DHT22;3211;53.452;-2.264;2023-07-13T04:18:11;13.90;99.90
6357;DHT22;3211;53.452;-2.264;2023-07-13T04:20:54;14.00;99.90
6357;DHT22;3211;53.452;-2.264;2023-07-13T04:23:37;14.00;99.90
6357;DHT22;3211;53.452;-2.264;2023-07-13T04:26:19;14.00;14.90
6357;DHT22;3211;53.452;-2.264;2023-07-13T04:29:01;14.10;1.00
6357;DHT22;3211;53.452;-2.264;2023-07-13T04:31:44;14.00;1.00
6357;DHT22;3211;53.452;-2.264;2023-07-13T04:34:26;14.10;6.70
6357;DHT22;3211;53.452;-2.264;2023-07-13T04:37:09;14.00;1.00
6357;DHT22;3211;53.452;-2.264;2023-07-13T04:39:51;13.80;1.00
6357;DHT22;3211;53.452;-2.264;2023-07-13T04:42:34;13.80;1.00
6357;DHT22;3211;53.452;-2.264;2023-07-13T04:45:16;13.70;1.00
6357;DHT22;3211;53.452;-2.264;2023-07-13T04:47:58;13.80;72.00
6357;DHT22;3211;53.452;-2.264;2023-07-13T04:50:40;13.80;10.90
6357;DHT22;3211;53.452;-2.264;2023-07-13T04:53:23;13.80;33.60
6357;DHT22;3211;53.452;-2.264;2023-07-13T04:56:06;13.70;1.00
6357;DHT22;3211;53.452;-2.264;2023-07-13T04:58:47;13.80;98.60
6357;DHT22;3211;53.452;-2.264;2023-07-13T05:01:29;13.80;1.00
6357;DHT22;3211;53.452;-2.264;2023-07-13T05:04:11;13.70;61.60
6357;DHT22;3211;53.452;-2.264;2023-07-13T05:06:53;13.80;1.00
6357;DHT22;3211;53.452;-2.264;2023-07-13T05:09:37;13.80;1.00
6357;DHT22;3211;53.452;-2.264;2023-07-13T05:12:20;13.80;1.00
6357;DHT22;3211;53.452;-2.264;2023-07-13T05:15:03;13.80;1.00
6357;DHT22;3211;53.452;-2.264;2023-07-13T05:17:45;13.90;1.00
6357;DHT22;3211;53.452;-2.264;2023-07-13T05:20:27;13.80;1.00
6357;DHT22;3211;53.452;-2.264;2023-07-13T05:23:09;13.90;1.00
6357;DHT22;3211;53.452;-2.264;2023-07-13T05:25:52;13.90;1.00
6357;DHT22;3211;53.452;-2.264;2023-07-13T05:28:34;14.00;99.90
6357;DHT22;3211;53.452;-2.264;2023-07-13T05:31:16;13.90;99.90
6357;DHT22;3211;53.452;-2.264;2023-07-13T05:33:58;13.90;99.90
6357;DHT22;3211;53.452;-2.264;2023-07-13T05:36:40;13.80;99.90
6357;DHT22;3211;53.452;-2.264;2023-07-13T05:39:22;13.90;99.90
6357;DHT22;3211;53.452;-2.264;2023-07-13T05:42:06;14.00;99.90
6357;DHT22;3211;53.452;-2.264;2023-07-13T05:44:48;14.00;99.90
6357;DHT22;3211;53.452;-2.264;2023-07-13T05:47:30;14.00;99.90
6357;DHT22;3211;53.452;-2.264;2023-07-13T05:50:11;14.10;99.90
6357;DHT22;3211;53.452;-2.264;2023-07-13T05:52:53;14.10;99.90
6357;DHT22;3211;53.452;-2.264;2023-07-13T05:55:41;14.10;1.00
6357;DHT22;3211;53.452;-2.264;2023-07-13T05:58:24;14.10;26.50
6357;DHT22;3211;53.452;-2.264;2023-07-13T06:01:08;14.30;1.00
6357;DHT22;3211;53.452;-2.264;2023-07-13T06:03:51;14.40;1.00
6357;DHT22;3211;53.452;-2.264;2023-07-13T06:06:33;14.20;99.90
6357;DHT22;3211;53.452;-2.264;2023-07-13T06:09:15;14.30;1.00
6357;DHT22;3211;53.452;-2.264;2023-07-13T06:11:57;14.40;99.90
6357;DHT22;3211;53.452;-2.264;2023-07-13T06:14:40;14.30;99.90
6357;DHT22;3211;53.452;-2.264;2023-07-13T06:17:22;14.40;99.90
6357;DHT22;3211;53.452;-2.264;2023-07-13T06:20:05;14.40;99.90
6357;DHT22;3211;53.452;-2.264;2023-07-13T06:22:47;14.60;1.00
6357;DHT22;3211;53.452;-2.264;2023-07-13T06:25:29;14.60;99.90
6357;DHT22;3211;53.452;-2.264;2023-07-13T06:28:11;14.50;99.90
6357;DHT22;3211;53.452;-2.264;2023-07-13T06:30:55;14.60;99.90
6357;DHT22;3211;53.452;-2.264;2023-07-13T06:33:37;14.70;99.90
6357;DHT22;3211;53.452;-2.264;2023-07-13T06:36:19;14.80;99.90
6357;DHT22;3211;53.452;-2.264;2023-07-13T06:39:01;14.80;75.60
6357;DHT22;3211;53.452;-2.264;2023-07-13T06:41:43;14.90;1.00
6357;DHT22;3211;53.452;-2.264;2023-07-13T06:44:25;15.00;1.00
6357;DHT22;3211;53.452;-2.264;2023-07-13T06:47:09;15.00;99.90
6357;DHT22;3211;53.452;-2.264;2023-07-13T06:49:51;15.00;1.00
6357;DHT22;3211;53.452;-2.264;2023-07-13T06:52:32;15.10;1.00
6357;DHT22;3211;53.452;-2.264;2023-07-13T06:55:14;15.20;1.00
6357;DHT22;3211;53.452;-2.264;2023-07-13T06:57:57;15.30;99.90
6357;DHT22;3211;53.452;-2.264;2023-07-13T07:00:39;15.20;99.90
6357;DHT22;3211;53.452;-2.264;2023-07-13T07:03:23;15.20;1.00
6357;DHT22;3211;53.452;-2.264;2023-07-13T07:06:13;15.10;1.00
6357;DHT22;3211;53.452;-2.264;2023-07-13T07:08:55;15.10;1.00
6357;DHT22;3211;53.452;-2.264;2023-07-13T07:11:37;15.20;1.00
6357;DHT22;3211;53.452;-2.264;2023-07-13T07:14:19;15.30;1.00
6357;DHT22;3211;53.452;-2.264;2023-07-13T07:17:01;15.40;99.90
6357;DHT22;3211;53.452;-2.264;2023-07-13T07:19:44;15.50;99.90
6357;DHT22;3211;53.452;-2.264;2023-07-13T07:22:26;15.50;99.90
6357;DHT22;3211;53.452;-2.264;2023-07-13T07:25:08;15.50;99.90
6357;DHT22;3211;53.452;-2.264;2023-07-13T07:27:50;15.60;99.90
6357;DHT22;3211;53.452;-2.264;2023-07-13T07:30:32;15.70;99.90
6357;DHT22;3211;53.452;-2.264;2023-07-13T07:33:15;15.90;84.20
6357;DHT22;3211;53.452;-2.264;2023-07-13T07:35:58;16.30;99.90
6357;DHT22;3211;53.452;-2.264;2023-07-13T07:38:40;16.40;1.00
6357;DHT22;3211;53.452;-2.264;2023-07-13T07:41:22;16.50;1.00
6357;DHT22;3211;53.452;-2.264;2023-07-13T07:44:04;16.50;99.90
6357;DHT22;3211;53.452;-2.264;2023-07-13T07:46:48;16.30;1.00
6357;DHT22;3211;53.452;-2.264;2023-07-13T07:49:30;16.20;1.00
6357;DHT22;3211;53.452;-2.264;2023-07-13T07:52:13;16.10;1.00
6357;DHT22;3211;53.452;-2.264;2023-07-13T07:54:55;16.20;1.00
6357;DHT22;3211;53.452;-2.264;2023-07-13T07:57:37;16.30;1.00
6357;DHT22;3211;53.452;-2.264;2023-07-13T08:00:19;16.30;1.00
6357;DHT22;3211;53.452;-2.264;2023-07-13T08:03:02;16.40;1.00
6357;DHT22;3211;53.452;-2.264;2023-07-13T08:05:44;16.30;99.90
6357;DHT22;3211;53.452;-2.264;2023-07-13T08:08:27;16.30;99.90
6357;DHT22;3211;53.452;-2.264;2023-07-13T08:11:09;16.20;1.00
6357;DHT22;3211;53.452;-2.264;2023-07-13T08:13:52;16.20;1.00
6357;DHT22;3211;53.452;-2.264;2023-07-13T08:16:34;16.20;1.00
6357;DHT22;3211;53.452;-2.264;2023-07-13T08:19:16;16.30;99.90
6357;DHT22;3211;53.452;-2.264;2023-07-13T08:21:58;16.60;99.90
6357;DHT22;3211;53.452;-2.264;2023-07-13T08:24:41;16.70;95.10
6357;DHT22;3211;53.452;-2.264;2023-07-13T08:27:25;16.60;99.90
6357;DHT22;3211;53.452;-2.264;2023-07-13T08:30:08;16.60;77.30
6357;DHT22;3211;53.452;-2.264;2023-07-13T08:32:50;16.40;2.80
6357;DHT22;3211;53.452;-2.264;2023-07-13T08:35:32;16.30;1.00
6357;DHT22;3211;53.452;-2.264;2023-07-13T08:38:14;16.30;1.00
6357;DHT22;3211;53.452;-2.264;2023-07-13T08:40:57;16.50;1.00
6357;DHT22;3211;53.452;-2.264;2023-07-13T08:43:40;16.60;16.70
6357;DHT22;3211;53.452;-2.264;2023-07-13T08:46:25;16.80;1.00
6357;DHT22;3211;53.452;-2.264;2023-07-13T08:49:13;17.20;99.90
6357;DHT22;3211;53.452;-2.264;2023-07-13T08:52:00;17.30;99.90
6357;DHT22;3211;53.452;-2.264;2023-07-13T08:54:45;17.50;99.90
6357;DHT22;3211;53.452;-2.264;2023-07-13T08:57:34;17.60;1.00
6357;DHT22;3211;53.452;-2.264;2023-07-13T09:00:16;17.50;1.00
6357;DHT22;3211;53.452;-2.264;2023-07-13T09:02:59;17.40;99.90
6357;DHT22;3211;53.452;-2.264;2023-07-13T09:05:42;17.30;1.00
6357;DHT22;3211;53.452;-2.264;2023-07-13T09:08:37;17.10;1.00
6357;DHT22;3211;53.452;-2.264;2023-07-13T09:11:32;17.30;1.00
6357;DHT22;3211;53.452;-2.264;2023-07-13T09:14:33;17.30;99.90
6357;DHT22;3211;53.452;-2.264;2023-07-13T09:17:21;17.30;99.90
6357;DHT22;3211;53.452;-2.264;2023-07-13T09:20:23;17.40;99.90
6357;DHT22;3211;53.452;-2.264;2023-07-13T09:23:12;17.70;99.90
6357;DHT22;3211;53.452;-2.264;2023-07-13T09:26:04;17.60;1.00
6357;DHT22;3211;53.452;-2.264;2023-07-13T09:28:49;17.60;1.00
6357;DHT22;3211;53.452;-2.264;2023-07-13T09:31:38;17.60;61.40
6357;DHT22;3211;53.452;-2.264;2023-07-13T09:34:21;17.70;99.90
6357;DHT22;3211;53.452;-2.264;2023-07-13T09:37:03;17.80;29.70
6357;DHT22;3211;53.452;-2.264;2023-07-13T09:39:46;18.00;1.00
6357;DHT22;3211;53.452;-2.264;2023-07-13T09:42:29;18.00;1.00
6357;DHT22;3211;53.452;-2.264;2023-07-13T09:45:17;17.90;1.00
6357;DHT22;3211;53.452;-2.264;2023-07-13T09:48:12;18.00;1.00
6357;DHT22;3211;53.452;-2.264;2023-07-13T09:50:55;18.00;99.90
6357;DHT22;3211;53.452;-2.264;2023-07-13T09:53:37;17.80;20.20
6357;DHT22;3211;53.452;-2.264;2023-07-13T09:56:21;17.80;61.20
6357;DHT22;3211;53.452;-2.264;2023-07-13T09:59:04;17.90;91.40
6357;DHT22;3211;53.452;-2.264;2023-07-13T10:01:46;18.10;99.90
6357;DHT22;3211;53.452;-2.264;2023-07-13T10:04:33;18.20;1.00
6357;DHT22;3211;53.452;-2.264;2023-07-13T10:07:15;18.60;1.00
6357;DHT22;3211;53.452;-2.264;2023-07-13T10:10:00;18.80;99.90
6357;DHT22;3211;53.452;-2.264;2023-07-13T10:12:43;18.40;99.90
6357;DHT22;3211;53.452;-2.264;2023-07-13T10:15:26;18.30;99.90
6357;DHT22;3211;53.452;-2.264;2023-07-13T10:18:09;18.30;99.90
6357;DHT22;3211;53.452;-2.264;2023-07-13T10:20:58;18.20;99.90
6357;DHT22;3211;53.452;-2.264;2023-07-13T10:23:50;18.20;1.00
6357;DHT22;3211;53.452;-2.264;2023-07-13T10:26:33;18.20;1.00
6357;DHT22;3211;53.452;-2.264;2023-07-13T10:29:16;18.10;1.00
6357;DHT22;3211;53.452;-2.264;2023-07-13T10:31:59;18.10;99.90
6357;DHT22;3211;53.452;-2.264;2023-07-13T10:34:43;18.30;99.90
6357;DHT22;3211;53.452;-2.264;2023-07-13T10:37:33;18.30;99.90
6357;DHT22;3211;53.452;-2.264;2023-07-13T10:40:25;18.50;1.00
6357;DHT22;3211;53.452;-2.264;2023-07-13T10:43:20;18.50;99.90
6357;DHT22;3211;53.452;-2.264;2023-07-13T10:46:05;18.50;1.00
6357;DHT22;3211;53.452;-2.264;2023-07-13T10:48:52;18.80;1.00
6357;DHT22;3211;53.452;-2.264;2023-07-13T10:51:35;18.80;99.90
6357;DHT22;3211;53.452;-2.264;2023-07-13T10:54:20;19.00;99.90
6357;DHT22;3211;53.452;-2.264;2023-07-13T10:57:18;19.30;99.90
6357;DHT22;3211;53.452;-2.264;2023-07-13T11:00:15;19.50;99.90
6357;DHT22;3211;53.452;-2.264;2023-07-13T11:02:59;19.60;44.30
6357;DHT22;3211;53.452;-2.264;2023-07-13T11:05:42;20.00;1.00
6357;DHT22;3211;53.452;-2.264;2023-07-13T11:08:33;19.90;1.00
6357;DHT22;3211;53.452;-2.264;2023-07-13T11:11:36;20.00;97.20
6357;DHT22;3211;53.452;-2.264;2023-07-13T11:14:28;19.90;98.80
6357;DHT22;3211;53.452;-2.264;2023-07-13T11:17:36;20.00;58.90
6357;DHT22;3211;53.452;-2.264;2023-07-13T12:39:59;19.90;1.00
6357;DHT22;3211;53.452;-2.264;2023-07-13T12:42:41;20.20;2.00
6357;DHT22;3211;53.452;-2.264;2023-07-13T12:45:25;20.20;1.00
6357;DHT22;3211;53.452;-2.264;2023-07-13T12:48:15;20.10;1.00
6357;DHT22;3211;53.452;-2.264;2023-07-13T12:51:00;20.00;1.00
6357;DHT22;3211;53.452;-2.264;2023-07-13T12:53:49;19.90;1.00
6357;DHT22;3211;53.452;-2.264;2023-07-13T12:56:36;19.90;99.90
6357;DHT22;3211;53.452;-2.264;2023-07-13T12:59:19;19.80;97.90
6357;DHT22;3211;53.452;-2.264;2023-07-13T13:02:02;19.80;99.90
6357;DHT22;3211;53.452;-2.264;2023-07-13T13:04:51;19.80;99.90
6357;DHT22;3211;53.452;-2.264;2023-07-13T13:07:35;19.80;99.90
6357;DHT22;3211;53.452;-2.264;2023-07-13T13:10:17;19.60;99.90
6357;DHT22;3211;53.452;-2.264;2023-07-13T13:13:03;19.40;8.40
6357;DHT22;3211;53.452;-2.264;2023-07-13T13:15:46;19.10;1.00
6357;DHT22;3211;53.452;-2.264;2023-07-13T13:18:29;19.10;21.50
6357;DHT22;3211;53.452;-2.264;2023-07-13T13:21:12;19.50;5.50
6357;DHT22;3211;53.452;-2.264;2023-07-13T13:23:54;20.10;1.00
6357;DHT22;3211;53.452;-2.264;2023-07-13T13:26:36;20.40;99.90
6357;DHT22;3211;53.452;-2.264;2023-07-13T13:29:21;20.30;99.90
6357;DHT22;3211;53.452;-2.264;2023-07-13T13:32:09;20.60;99.90
6357;DHT22;3211;53.452;-2.264;2023-07-13T13:34:51;21.10;4.20
6357;DHT22;3211;53.452;-2.264;2023-07-13T13:37:34;21.30;99.90
6357;DHT22;3211;53.452;-2.264;2023-07-13T13:40:18;21.40;99.90
6357;DHT22;3211;53.452;-2.264;2023-07-13T13:43:00;21.70;99.90
6357;DHT22;3211;53.452;-2.264;2023-07-13T13:45:44;21.70;96.00
6357;DHT22;3211;53.452;-2.264;2023-07-13T13:48:30;22.20;99.90
6357;DHT22;3211;53.452;-2.264;2023-07-13T13:51:15;22.10;1.00
6357;DHT22;3211;53.452;-2.264;2023-07-13T13:54:01;22.40;12.10
6357;DHT22;3211;53.452;-2.264;2023-07-13T13:56:45;22.60;1.00
6357;DHT22;3211;53.452;-2.264;2023-07-13T13:59:27;22.70;1.00
6357;DHT22;3211;53.452;-2.264;2023-07-13T14:02:24;22.50;1.00
6357;DHT22;3211;53.452;-2.264;2023-07-13T14:05:13;22.70;1.00
6357;DHT22;3211;53.452;-2.264;2023-07-13T14:07:55;22.00;1.00
6357;DHT22;3211;53.452;-2.264;2023-07-13T14:10:37;21.70;87.30
6357;DHT22;3211;53.452;-2.264;2023-07-13T14:13:22;21.10;99.90
6357;DHT22;3211;53.452;-2.264;2023-07-13T14:16:12;21.40;99.90
6357;DHT22;3211;53.452;-2.264;2023-07-13T14:18:56;21.80;99.90
6357;DHT22;3211;53.452;-2.264;2023-07-13T14:21:41;22.00;99.90
6357;DHT22;3211;53.452;-2.264;2023-07-13T14:24:22;22.10;1.00
6357;DHT22;3211;53.452;-2.264;2023-07-13T14:27:09;22.20;1.00
6357;DHT22;3211;53.452;-2.264;2023-07-13T14:29:52;22.00;1.00
6357;DHT22;3211;53.452;-2.264;2023-07-13T14:32:34;22.00;1.00
6357;DHT22;3211;53.452;-2.264;2023-07-13T14:35:21;22.80;1.00
6357;DHT22;3211;53.452;-2.264;2023-07-13T14:38:04;24.30;1.00
6357;DHT22;3211;53.452;-2.264;2023-07-13T14:40:47;25.30;99.90
6357;DHT22;3211;53.452;-2.264;2023-07-13T14:43:28;25.70;99.90
6357;DHT22;3211;53.452;-2.264;2023-07-13T14:46:21;26.30;99.90
6357;DHT22;3211;53.452;-2.264;2023-07-13T14:49:13;24.20;99.90
6357;DHT22;3211;53.452;-2.264;2023-07-13T14:51:59;22.80;99.90
6357;DHT22;3211;53.452;-2.264;2023-07-13T14:54:42;22.10;99.90
6357;DHT22;3211;53.452;-2.264;2023-07-13T14:57:26;25.60;99.90
6357;DHT22;3211;53.452;-2.264;2023-07-13T15:00:17;26.10;33.20
6357;DHT22;3211;53.452;-2.264;2023-07-13T15:03:00;25.50;60.40
6357;DHT22;3211;53.452;-2.264;2023-07-13T15:05:46;26.60;14.90
6357;DHT22;3211;53.452;-2.264;2023-07-13T15:08:29;25.10;45.90
6357;DHT22;3211;53.452;-2.264;2023-07-13T15:11:11;26.90;2.30
6357;DHT22;3211;53.452;-2.264;2023-07-13T15:13:53;25.50;1.00
6357;DHT22;3211;53.452;-2.264;2023-07-13T15:16:36;23.50;48.50
6357;DHT22;3211;53.452;-2.264;2023-07-13T15:19:19;25.30;99.90
6357;DHT22;3211;53.452;-2.264;2023-07-13T15:22:08;25.60;99.90
6357;DHT22;3211;53.452;-2.264;2023-07-13T15:24:52;24.80;94.90
6357;DHT22;3211;53.452;-2.264;2023-07-13T15:27:35;25.70;5.90
6357;DHT22;3211;53.452;-2.264;2023-07-13T15:30:19;24.40;16.60
6357;DHT22;3211;53.452;-2.264;2023-07-13T15:33:11;24.00;85.40
6357;DHT22;3211;53.452;-2.264;2023-07-13T15:35:54;24.50;86.20
6357;DHT22;3211;53.452;-2.264;2023-07-13T15:38:36;24.40;33.80
6357;DHT22;3211;53.452;-2.264;2023-07-13T15:41:21;23.30;50.80
6357;DHT22;3211;53.452;-2.264;2023-07-13T15:44:20;22.90;99.90
6357;DHT22;3211;53.452;-2.264;2023-07-13T15:47:03;22.90;99.90
6357;DHT22;3211;53.452;-2.264;2023-07-13T15:49:49;22.30;99.90
6357;DHT22;3211;53.452;-2.264;2023-07-13T15:52:32;21.80;99.90
6357;DHT22;3211;53.452;-2.264;2023-07-13T15:55:15;22.50;99.90
6357;DHT22;3211;53.452;-2.264;2023-07-13T15:57:58;22.50;99.90
6357;DHT22;3211;53.452;-2.264;2023-07-13T16:00:44;21.70;99.90
6357;DHT22;3211;53.452;-2.264;2023-07-13T16:03:26;21.40;99.90
6357;DHT22;3211;53.452;-2.264;2023-07-13T16:06:15;21.20;99.90
6357;DHT22;3211;53.452;-2.264;2023-07-13T16:08:58;21.20;99.90
6357;DHT22;3211;53.452;-2.264;2023-07-13T16:11:44;21.50;99.90
6357;DHT22;3211;53.452;-2.264;2023-07-13T16:14:27;23.20;99.90
6357;DHT22;3211;53.452;-2.264;2023-07-13T16:17:10;23.10;99.90
6357;DHT22;3211;53.452;-2.264;2023-07-13T16:19:52;21.50;99.90
6357;DHT22;3211;53.452;-2.264;2023-07-13T16:22:37;21.00;99.90
6357;DHT22;3211;53.452;-2.264;2023-07-13T16:25:22;20.60;1.00
6357;DHT22;3211;53.452;-2.264;2023-07-13T16:28:10;20.80;1.00
6357;DHT22;3211;53.452;-2.264;2023-07-13T16:30:53;22.50;99.90
6357;DHT22;3211;53.452;-2.264;2023-07-13T16:33:35;24.50;99.90
6357;DHT22;3211;53.452;-2.264;2023-07-13T16:36:17;22.70;99.90
6357;DHT22;3211;53.452;-2.264;2023-07-13T16:38:59;21.70;99.90
6357;DHT22;3211;53.452;-2.264;2023-07-13T16:41:45;21.00;1.00
6357;DHT22;3211;53.452;-2.264;2023-07-13T16:44:27;20.70;1.00
6357;DHT22;3211;53.452;-2.264;2023-07-13T16:47:14;21.60;1.00
6357;DHT22;3211;53.452;-2.264;2023-07-13T16:49:57;22.50;99.90
6357;DHT22;3211;53.452;-2.264;2023-07-13T16:52:39;22.30;1.00
6357;DHT22;3211;53.452;-2.264;2023-07-13T16:55:22;21.80;99.90
6357;DHT22;3211;53.452;-2.264;2023-07-13T16:58:09;22.30;99.90
6357;DHT22;3211;53.452;-2.264;2023-07-13T17:00:52;22.00;99.90
6357;DHT22;3211;53.452;-2.264;2023-07-13T17:03:36;21.80;99.90
6357;DHT22;3211;53.452;-2.264;2023-07-13T17:06:22;22.30;99.90
6357;DHT22;3211;53.452;-2.264;2023-07-13T17:09:07;22.50;99.90
6357;DHT22;3211;53.452;-2.264;2023-07-13T17:11:52;23.00;99.90
6357;DHT22;3211;53.452;-2.264;2023-07-13T17:14:34;22.30;99.90
6357;DHT22;3211;53.452;-2.264;2023-07-13T17:17:20;22.00;99.90
6357;DHT22;3211;53.452;-2.264;2023-07-13T17:20:14;22.40;99.90
6357;DHT22;3211;53.452;-2.264;2023-07-13T17:22:57;22.40;99.90
6357;DHT22;3211;53.452;-2.264;2023-07-13T17:25:39;22.30;99.90
6357;DHT22;3211;53.452;-2.264;2023-07-13T17:28:22;22.30;99.90
6357;DHT22;3211;53.452;-2.264;2023-07-13T17:31:05;22.00;99.90
6357;DHT22;3211;53.452;-2.264;2023-07-13T17:33:49;21.80;99.90
6357;DHT22;3211;53.452;-2.264;2023-07-13T17:36:33;21.60;99.90
6357;DHT22;3211;53.452;-2.264;2023-07-13T17:39:16;21.50;1.00
6357;DHT22;3211;53.452;-2.264;2023-07-13T17:41:59;21.30;1.00
6357;DHT22;3211;53.452;-2.264;2023-07-13T17:44:44;21.30;1.00
6357;DHT22;3211;53.452;-2.264;2023-07-13T17:47:27;21.60;1.00
6357;DHT22;3211;53.452;-2.264;2023-07-13T17:50:11;21.60;1.00
6357;DHT22;3211;53.452;-2.264;2023-07-13T17:52:55;21.60;1.00
6357;DHT22;3211;53.452;-2.264;2023-07-13T17:55:37;21.10;1.00
6357;DHT22;3211;53.452;-2.264;2023-07-13T17:58:19;21.20;1.00
6357;DHT22;3211;53.452;-2.264;2023-07-13T18:01:16;21.00;1.00
6357;DHT22;3211;53.452;-2.264;2023-07-13T18:04:00;20.90;1.00
6357;DHT22;3211;53.452;-2.264;2023-07-13T18:06:45;21.00;1.00
6357;DHT22;3211;53.452;-2.264;2023-07-13T18:09:34;21.10;1.00
6357;DHT22;3211;53.452;-2.264;2023-07-13T18:12:17;21.20;1.00
6357;DHT22;3211;53.452;-2.264;2023-07-13T18:14:59;21.10;1.00
6357;DHT22;3211;53.452;-2.264;2023-07-13T18:17:47;21.10;1.00
6357;DHT22;3211;53.452;-2.264;2023-07-13T18:20:31;21.10;1.00
6357;DHT22;3211;53.452;-2.264;2023-07-13T18:23:15;21.00;46.40
6357;DHT22;3211;53.452;-2.264;2023-07-13T18:25:59;21.10;1.00
6357;DHT22;3211;53.452;-2.264;2023-07-13T18:28:46;20.80;1.00
6357;DHT22;3211;53.452;-2.264;2023-07-13T18:31:35;20.80;51.40
6357;DHT22;3211;53.452;-2.264;2023-07-13T18:34:17;20.80;55.40
6357;DHT22;3211;53.452;-2.264;2023-07-13T18:36:59;20.80;1.00
6357;DHT22;3211;53.452;-2.264;2023-07-13T18:39:41;20.60;54.70
6357;DHT22;3211;53.452;-2.264;2023-07-13T18:42:24;20.60;93.60
6357;DHT22;3211;53.452;-2.264;2023-07-13T18:45:07;20.50;99.90
6357;DHT22;3211;53.452;-2.264;2023-07-13T18:47:55;20.40;99.90
6357;DHT22;3211;53.452;-2.264;2023-07-13T18:50:42;20.50;99.90
6357;DHT22;3211;53.452;-2.264;2023-07-13T18:53:24;20.40;99.90
6357;DHT22;3211;53.452;-2.264;2023-07-13T18:56:07;20.30;99.90
6357;DHT22;3211;53.452;-2.264;2023-07-13T18:58:53;20.10;99.90